Time;durP1;ratioP1;P1;durP2;ratioP2;P2;SDS_P1;SDS_P2;PMS_P1;PMS_P2;Temp;Humidity;BMP_temperature;BMP_pressure;BME280_temperature;BME280_humidity;BME280_pressure;Samples;Min_cycle;Max_cycle;Signal;HPM_P1;HPM_P2
2023/07/02 00:01:27;;;;;;;3.70;3.13;;;;;;;;;;5034836;28;20049;-77
2023/07/02 00:03:53;;;;;;;4.65;3.10;;;;;;;;;;5017945;28;20480;-77
2023/07/02 00:06:20;;;;;;;5.60;3.00;;;;;;;;;;5035268;28;20099;-77
2023/07/02 00:08:46;;;;;;;3.42;3.13;;;;;;;;;;5034410;28;20088;-77
2023/07/02 00:11:12;;;;;;;4.40;3.00;;;;;;;;;;5034387;28;20049;-77
2023/07/02 00:13:39;;;;;;;3.53;3.20;;;;;;;;;;5018694;28;20053;-77
2023/07/02 00:16:06;;;;;;;4.72;3.00;;;;;;;;;;5001329;28;20053;-77
2023/07/02 00:18:33;;;;;;;3.72;3.28;;;;;;;;;;5034557;28;20041;-77
2023/07/02 00:21:03;;;;;;;3.50;3.10;;;;;;;;;;5033684;28;20538;-76
2023/07/02 00:23:29;;;;;;;3.60;2.95;;;;;;;;;;5017710;28;20049;-76
2023/07/02 00:25:57;;;;;;;3.40;3.15;;;;;;;;;;5017649;28;20103;-77
2023/07/02 00:28:23;;;;;;;4.25;3.30;;;;;;;;;;5018420;28;20056;-77
2023/07/02 00:30:49;;;;;;;4.80;3.80;;;;;;;;;;5033270;28;20087;-77
2023/07/02 00:33:16;;;;;;;4.13;3.40;;;;;;;;;;5018338;28;20053;-77
2023/07/02 00:35:42;;;;;;;5.25;3.60;;;;;;;;;;5018115;28;20056;-77
2023/07/02 00:38:08;;;;;;;4.93;3.38;;;;;;;;;;5000935;28;20092;-77
2023/07/02 00:40:34;;;;;;;5.10;3.40;;;;;;;;;;5033811;28;20494;-76
2023/07/02 00:43:00;;;;;;;3.90;3.58;;;;;;;;;;5017485;28;20057;-77
2023/07/02 00:45:27;;;;;;;4.20;3.90;;;;;;;;;;5033745;28;20045;-77
2023/07/02 00:47:54;;;;;;;6.05;3.70;;;;;;;;;;5017271;28;20049;-77
2023/07/02 00:50:22;;;;;;;4.15;3.70;;;;;;;;;;5017017;28;20052;-77
2023/07/02 00:52:48;;;;;;;4.53;3.67;;;;;;;;;;5034393;28;20080;-77
2023/07/02 00:55:14;;;;;;;7.63;4.38;;;;;;;;;;5016846;28;20053;-78
2023/07/02 00:57:40;;;;;;;5.05;3.65;;;;;;;;;;5034382;28;20136;-77
2023/07/02 01:00:07;;;;;;;7.28;3.97;;;;;;;;;;5033516;28;20104;-77
2023/07/02 01:02:33;;;;;;;5.72;3.95;;;;;;;;;;5017025;28;20449;-77
2023/07/02 01:04:59;;;;;;;5.85;3.25;;;;;;;;;;5033352;28;20042;-77
2023/07/02 01:07:25;;;;;;;4.20;3.70;;;;;;;;;;5001341;28;20045;-77
2023/07/02 01:09:52;;;;;;;6.20;3.83;;;;;;;;;;5033464;28;20049;-77
2023/07/02 01:12:18;;;;;;;5.63;3.90;;;;;;;;;;5033276;28;20049;-77
2023/07/02 01:14:48;;;;;;;5.82;3.38;;;;;;;;;;5034043;28;20098;-77
2023/07/02 01:17:18;;;;;;;5.65;3.40;;;;;;;;;;5033534;28;20095;-77
2023/07/02 01:19:45;;;;;;;5.75;3.45;;;;;;;;;;5016422;28;20045;-77
2023/07/02 01:22:11;;;;;;;7.38;4.07;;;;;;;;;;5016450;28;20629;-77
2023/07/02 01:24:39;;;;;;;4.78;3.25;;;;;;;;;;5016644;28;20398;-77
2023/07/02 01:27:05;;;;;;;5.88;3.80;;;;;;;;;;5016571;28;20141;-77
2023/07/02 01:29:32;;;;;;;6.90;3.92;;;;;;;;;;5033885;28;20095;-77
2023/07/02 01:31:58;;;;;;;9.63;3.78;;;;;;;;;;5032174;28;20065;-77
2023/07/02 01:34:24;;;;;;;9.50;4.63;;;;;;;;;;5032724;28;20058;-77
2023/07/02 01:36:50;;;;;;;9.50;4.68;;;;;;;;;;5017283;28;20130;-77
2023/07/02 01:39:16;;;;;;;8.70;3.92;;;;;;;;;;5016710;28;20054;-77
2023/07/02 01:41:45;;;;;;;6.40;3.83;;;;;;;;;;5032822;28;20562;-77
2023/07/02 01:44:11;;;;;;;11.63;5.18;;;;;;;;;;5016338;28;20056;-77
2023/07/02 01:46:37;;;;;;;9.32;4.93;;;;;;;;;;5032504;28;20253;-77
2023/07/02 01:49:03;;;;;;;8.32;4.88;;;;;;;;;;5032641;28;20500;-78
2023/07/02 01:51:30;;;;;;;10.63;5.00;;;;;;;;;;5000084;28;20076;-77
2023/07/02 01:54:02;;;;;;;15.07;5.88;;;;;;;;;;5017027;28;20481;-77
2023/07/02 01:56:28;;;;;;;10.55;5.50;;;;;;;;;;5017095;28;20057;-78
2023/07/02 01:58:54;;;;;;;10.27;5.03;;;;;;;;;;5032961;28;20052;-77
2023/07/02 02:01:20;;;;;;;14.18;5.68;;;;;;;;;;5015806;28;20046;-77
2023/07/02 02:03:46;;;;;;;9.48;4.88;;;;;;;;;;5017009;28;20083;-78
2023/07/02 02:06:12;;;;;;;11.50;5.63;;;;;;;;;;5000733;28;20057;-79
2023/07/02 02:08:38;;;;;;;12.07;5.78;;;;;;;;;;5032354;28;20136;-77
2023/07/02 02:11:04;;;;;;;11.75;5.57;;;;;;;;;;5033035;28;20049;-77
2023/07/02 02:13:32;;;;;;;12.50;5.65;;;;;;;;;;5033346;28;20077;-78
2023/07/02 02:15:58;;;;;;;13.90;5.32;;;;;;;;;;5016608;28;20081;-77
2023/07/02 02:18:24;;;;;;;9.20;6.10;;;;;;;;;;5016365;28;20081;-77
2023/07/02 02:20:50;;;;;;;15.70;5.72;;;;;;;;;;5032291;28;20041;-78
2023/07/02 02:23:16;;;;;;;13.27;6.07;;;;;;;;;;5016335;28;20045;-77
2023/07/02 02:25:42;;;;;;;10.80;6.68;;;;;;;;;;5016023;28;20053;-77
2023/07/02 02:28:08;;;;;;;12.13;5.65;;;;;;;;;;5033169;28;20056;-77
2023/07/02 02:30:34;;;;;;;13.50;6.50;;;;;;;;;;5015688;28;20045;-77
2023/07/02 02:33:00;;;;;;;11.85;6.00;;;;;;;;;;5032011;28;20060;-77
2023/07/02 02:35:28;;;;;;;15.35;6.93;;;;;;;;;;5000152;28;20061;-77
2023/07/02 02:37:54;;;;;;;15.68;6.03;;;;;;;;;;5016254;28;20132;-77
2023/07/02 02:40:20;;;;;;;14.07;6.63;;;;;;;;;;5032226;28;20477;-78
2023/07/02 02:42:46;;;;;;;11.48;6.30;;;;;;;;;;5016409;28;20344;-77
2023/07/02 02:45:12;;;;;;;17.90;6.68;;;;;;;;;;5002945;28;20136;-77
2023/07/02 02:47:38;;;;;;;13.63;6.38;;;;;;;;;;5019413;28;20080;-77
2023/07/02 02:50:04;;;;;;;14.00;6.68;;;;;;;;;;5019550;28;20393;-77
2023/07/02 02:52:30;;;;;;;16.35;6.60;;;;;;;;;;5036164;28;20049;-77
2023/07/02 02:54:57;;;;;;;16.75;7.22;;;;;;;;;;5019268;28;20457;-77
2023/07/02 02:57:23;;;;;;;14.65;6.28;;;;;;;;;;5019325;28;20104;-77
2023/07/02 02:59:49;;;;;;;14.45;6.60;;;;;;;;;;5019601;28;20046;-77
2023/07/02 03:02:15;;;;;;;13.82;6.97;;;;;;;;;;5019133;28;20060;-77
2023/07/02 03:04:44;;;;;;;15.60;7.10;;;;;;;;;;5035600;28;20049;-77
2023/07/02 03:07:10;;;;;;;14.30;7.32;;;;;;;;;;5019396;28;20140;-77
2023/07/02 03:09:36;;;;;;;20.27;8.52;;;;;;;;;;5035480;28;20049;-77
2023/07/02 03:12:02;;;;;;;17.40;7.55;;;;;;;;;;5036154;28;20373;-77
2023/07/02 03:14:28;;;;;;;18.30;7.28;;;;;;;;;;5019021;28;20049;-77
2023/07/02 03:16:54;;;;;;;16.58;7.15;;;;;;;;;;5019776;28;20046;-77
2023/07/02 03:19:20;;;;;;;19.98;7.85;;;;;;;;;;5035363;28;20060;-77
2023/07/02 03:21:46;;;;;;;19.17;8.02;;;;;;;;;;5035104;28;20555;-77
2023/07/02 03:24:18;;;;;;;21.20;7.05;;;;;;;;;;5020559;28;20092;-77
2023/07/02 03:26:47;;;;;;;22.17;8.38;;;;;;;;;;5019125;28;20045;-77
2023/07/02 03:29:14;;;;;;;16.90;7.50;;;;;;;;;;5019580;28;20477;-77
2023/07/02 03:31:46;;;;;;;18.33;7.85;;;;;;;;;;5035735;28;20100;-77
2023/07/02 03:34:15;;;;;;;16.73;7.53;;;;;;;;;;5035229;28;20111;-77
2023/07/02 03:36:41;;;;;;;18.02;7.57;;;;;;;;;;5035066;28;20401;-77
2023/07/02 03:39:08;;;;;;;18.58;7.63;;;;;;;;;;5035887;28;20397;-77
2023/07/02 03:41:34;;;;;;;17.13;8.10;;;;;;;;;;5018666;28;20080;-77
2023/07/02 03:44:00;;;;;;;17.10;7.90;;;;;;;;;;5018528;28;20116;-77
2023/07/02 03:46:26;;;;;;;17.10;8.27;;;;;;;;;;5018798;28;20121;-77
2023/07/02 03:48:52;;;;;;;19.88;8.20;;;;;;;;;;5018389;28;20056;-77
2023/07/02 03:51:18;;;;;;;17.90;8.18;;;;;;;;;;5019273;28;20060;-77
2023/07/02 03:53:47;;;;;;;22.35;8.35;;;;;;;;;;5035447;28;20045;-77
2023/07/02 03:56:13;;;;;;;18.52;7.90;;;;;;;;;;5033849;28;20045;-77
2023/07/02 03:58:42;;;;;;;19.50;7.70;;;;;;;;;;5034717;28;20053;-77
2023/07/02 04:01:09;;;;;;;19.85;8.65;;;;;;;;;;5034609;28;20046;-77
2023/07/02 04:03:35;;;;;;;15.35;7.20;;;;;;;;;;5018152;28;20084;-77
2023/07/02 04:06:01;;;;;;;15.90;8.40;;;;;;;;;;5018000;28;20111;-77
2023/07/02 04:08:30;;;;;;;20.42;7.93;;;;;;;;;;5034388;28;20096;-77
2023/07/02 04:10:56;;;;;;;17.92;7.82;;;;;;;;;;5017911;28;20041;-77
2023/07/02 04:13:22;;;;;;;19.40;8.00;;;;;;;;;;5034936;28;20041;-77
2023/07/02 04:15:48;;;;;;;18.73;8.13;;;;;;;;;;5034631;28;20061;-77
2023/07/02 04:18:14;;;;;;;21.60;8.48;;;;;;;;;;5034317;28;20176;-77
2023/07/02 04:20:40;;;;;;;16.80;7.05;;;;;;;;;;5034256;28;20053;-77
2023/07/02 04:23:06;;;;;;;16.67;7.32;;;;;;;;;;5034179;28;20504;-77
2023/07/02 04:25:32;;;;;;;16.55;6.65;;;;;;;;;;5034904;28;20084;-76
2023/07/02 04:27:58;;;;;;;16.67;8.00;;;;;;;;;;5035117;28;20088;-77
2023/07/02 04:30:25;;;;;;;19.13;8.00;;;;;;;;;;5017625;28;20103;-76
2023/07/02 04:32:51;;;;;;;19.35;7.57;;;;;;;;;;5017095;28;20456;-77
2023/07/02 04:35:18;;;;;;;20.33;7.88;;;;;;;;;;5017284;28;20064;-77
2023/07/02 04:37:44;;;;;;;18.23;7.63;;;;;;;;;;5017909;28;20049;-76
2023/07/02 04:40:10;;;;;;;19.40;8.02;;;;;;;;;;5017711;28;20049;-77
2023/07/02 04:42:39;;;;;;;17.45;8.20;;;;;;;;;;5017647;28;20049;-77
2023/07/02 04:45:06;;;;;;;16.05;7.70;;;;;;;;;;5017570;28;20045;-77
2023/07/02 04:47:32;;;;;;;21.05;8.40;;;;;;;;;;5034838;28;20367;-77
2023/07/02 04:49:59;;;;;;;13.93;6.90;;;;;;;;;;5033461;28;20132;-77
2023/07/02 04:52:25;;;;;;;17.80;7.78;;;;;;;;;;5034440;28;20045;-76
2023/07/02 04:54:51;;;;;;;21.10;7.43;;;;;;;;;;5034424;28;20045;-77
2023/07/02 04:57:17;;;;;;;19.45;8.13;;;;;;;;;;5017177;28;20473;-77
2023/07/02 04:59:50;;;;;;;19.70;8.15;;;;;;;;;;5034327;28;20107;-77
2023/07/02 05:02:20;;;;;;;14.85;6.85;;;;;;;;;;5033256;28;20057;-77
2023/07/02 05:04:46;;;;;;;17.88;7.70;;;;;;;;;;5032995;28;20486;-77
2023/07/02 05:07:12;;;;;;;14.05;7.15;;;;;;;;;;5016852;28;20425;-77
2023/07/02 05:09:38;;;;;;;17.38;8.20;;;;;;;;;;5032799;28;20088;-76
2023/07/02 05:12:04;;;;;;;16.85;7.80;;;;;;;;;;5034078;28;20045;-77
2023/07/02 05:14:31;;;;;;;19.13;7.88;;;;;;;;;;5016724;28;20072;-76
2023/07/02 05:16:57;;;;;;;18.63;8.35;;;;;;;;;;5032888;28;20128;-76
2023/07/02 05:19:23;;;;;;;14.20;7.22;;;;;;;;;;5033162;28;20056;-76
2023/07/02 05:21:49;;;;;;;20.13;7.65;;;;;;;;;;5017456;28;20442;-76
2023/07/02 05:24:15;;;;;;;20.60;8.23;;;;;;;;;;5032797;28;20512;-76
2023/07/02 05:26:41;;;;;;;16.00;7.10;;;;;;;;;;5033028;28;20045;-76
2023/07/02 05:29:08;;;;;;;19.15;7.43;;;;;;;;;;5033601;28;20203;-76
2023/07/02 05:31:34;;;;;;;16.48;7.40;;;;;;;;;;5016273;28;20045;-76
2023/07/02 05:34:06;;;;;;;17.20;7.18;;;;;;;;;;5034642;28;20139;-76
2023/07/02 05:36:34;;;;;;;19.13;8.15;;;;;;;;;;5017177;28;20041;-76
2023/07/02 05:39:01;;;;;;;16.08;7.20;;;;;;;;;;5033345;28;20057;-77
2023/07/02 05:41:30;;;;;;;15.45;8.00;;;;;;;;;;5033627;28;20089;-76
2023/07/02 05:43:59;;;;;;;17.02;7.20;;;;;;;;;;5016586;28;20045;-76
2023/07/02 05:46:25;;;;;;;18.63;7.70;;;;;;;;;;5016263;28;20045;-77
2023/07/02 05:48:51;;;;;;;19.05;8.48;;;;;;;;;;5016080;28;20041;-76
2023/07/02 05:51:24;;;;;;;15.38;7.10;;;;;;;;;;5032542;28;20037;-79
2023/07/02 05:53:51;;;;;;;17.13;6.65;;;;;;;;;;5032423;28;20056;-77
2023/07/02 05:56:17;;;;;;;17.13;7.13;;;;;;;;;;5016229;28;20041;-77
2023/07/02 05:58:43;;;;;;;17.58;7.47;;;;;;;;;;5032892;28;20037;-77
2023/07/02 06:01:09;;;;;;;14.77;6.93;;;;;;;;;;5016134;28;20034;-77
2023/07/02 06:03:37;;;;;;;20.20;7.57;;;;;;;;;;5033401;28;20053;-77
2023/07/02 06:06:03;;;;;;;15.27;6.75;;;;;;;;;;5016043;28;20079;-79
2023/07/02 06:08:29;;;;;;;17.88;6.75;;;;;;;;;;5017020;28;20088;-77
2023/07/02 06:10:55;;;;;;;16.85;7.30;;;;;;;;;;5032192;28;20045;-77
2023/07/02 06:13:21;;;;;;;21.13;7.10;;;;;;;;;;5032438;28;20088;-78
2023/07/02 06:15:47;;;;;;;18.20;7.57;;;;;;;;;;5032366;28;20136;-76
2023/07/02 06:18:14;;;;;;;18.65;7.03;;;;;;;;;;5015848;28;20045;-76
2023/07/02 06:20:40;;;;;;;19.42;6.82;;;;;;;;;;5036501;28;20416;-76
2023/07/02 06:23:06;;;;;;;15.07;6.88;;;;;;;;;;5037225;28;20453;-77
2023/07/02 06:25:32;;;;;;;18.02;6.82;;;;;;;;;;5037230;28;20468;-76
2023/07/02 06:28:04;;;;;;;17.02;6.90;;;;;;;;;;5036690;28;20075;-76
2023/07/02 06:30:30;;;;;;;18.77;7.60;;;;;;;;;;5020407;28;20232;-77
2023/07/02 06:32:56;;;;;;;15.63;7.22;;;;;;;;;;5036687;28;20107;-77
2023/07/02 06:35:22;;;;;;;19.52;7.75;;;;;;;;;;5019643;28;20041;-77
2023/07/02 06:37:48;;;;;;;15.93;6.65;;;;;;;;;;5020569;28;20067;-77
2023/07/02 06:40:14;;;;;;;20.05;8.00;;;;;;;;;;5019559;28;20381;-76
2023/07/02 06:42:40;;;;;;;22.23;7.57;;;;;;;;;;5036078;28;20428;-76
2023/07/02 06:45:13;;;;;;;18.08;7.32;;;;;;;;;;5020674;28;20049;-77
2023/07/02 06:47:39;;;;;;;16.35;6.70;;;;;;;;;;5003346;28;20038;-77
2023/07/02 06:50:05;;;;;;;14.02;7.18;;;;;;;;;;5036441;28;20060;-77
2023/07/02 06:52:32;;;;;;;16.88;6.88;;;;;;;;;;5035842;28;20045;-77
2023/07/02 06:54:58;;;;;;;14.50;7.25;;;;;;;;;;5035561;28;20136;-77
2023/07/02 06:57:24;;;;;;;16.35;7.45;;;;;;;;;;5035550;28;20049;-77
2023/07/02 06:59:50;;;;;;;19.08;8.18;;;;;;;;;;5035668;28;20041;-77
2023/07/02 07:02:16;;;;;;;20.08;7.85;;;;;;;;;;5035852;28;20095;-77
2023/07/02 07:04:44;;;;;;;16.70;7.15;;;;;;;;;;5019037;28;20041;-77
2023/07/02 07:07:10;;;;;;;16.63;8.05;;;;;;;;;;5035607;28;20037;-77
2023/07/02 07:09:36;;;;;;;15.00;7.43;;;;;;;;;;5035412;28;20044;-76
2023/07/02 07:12:02;;;;;;;14.68;5.88;;;;;;;;;;5035795;28;20076;-76
2023/07/02 07:14:30;;;;;;;14.02;5.43;;;;;;;;;;5019862;28;20045;-76
2023/07/02 07:16:56;;;;;;;16.70;6.18;;;;;;;;;;5036021;28;20045;-78
2023/07/02 07:19:22;;;;;;;13.57;6.00;;;;;;;;;;5018904;28;20038;-77
2023/07/02 07:21:48;;;;;;;14.98;5.35;;;;;;;;;;5002980;28;20453;-76
2023/07/02 07:24:14;;;;;;;12.15;5.50;;;;;;;;;;5035561;28;20053;-76
2023/07/02 07:26:40;;;;;;;11.18;4.80;;;;;;;;;;5035553;28;20128;-77
2023/07/02 07:29:06;;;;;;;14.70;5.30;;;;;;;;;;5035160;28;20056;-76
2023/07/02 07:31:33;;;;;;;12.55;5.30;;;;;;;;;;5017242;28;20141;-77
2023/07/02 07:33:59;;;;;;;12.73;5.45;;;;;;;;;;5035988;28;20085;-77
2023/07/02 07:36:25;;;;;;;11.15;5.22;;;;;;;;;;5018878;28;20038;-77
2023/07/02 07:38:51;;;;;;;13.55;5.53;;;;;;;;;;5018640;28;20120;-77
2023/07/02 07:41:17;;;;;;;8.98;4.50;;;;;;;;;;5018425;28;20385;-76
2023/07/02 07:43:43;;;;;;;11.07;5.13;;;;;;;;;;5035089;28;20183;-78
2023/07/02 07:46:09;;;;;;;11.70;4.60;;;;;;;;;;5034632;28;20041;-77
2023/07/02 07:48:35;;;;;;;8.57;4.72;;;;;;;;;;5002849;28;20072;-77
2023/07/02 07:51:01;;;;;;;9.80;4.80;;;;;;;;;;5035040;28;20045;-77
2023/07/02 07:53:27;;;;;;;11.43;5.00;;;;;;;;;;5018028;28;20042;-78
2023/07/02 07:55:53;;;;;;;11.27;4.60;;;;;;;;;;5034426;28;20432;-77
2023/07/02 07:58:19;;;;;;;10.07;4.57;;;;;;;;;;5035213;28;20038;-76
2023/07/02 08:00:45;;;;;;;12.43;5.35;;;;;;;;;;5017957;28;20045;-76
2023/07/02 08:03:11;;;;;;;11.23;4.63;;;;;;;;;;5017684;28;20137;-77
2023/07/02 08:05:37;;;;;;;9.10;4.47;;;;;;;;;;5034168;28;20049;-77
2023/07/02 08:08:03;;;;;;;10.60;4.45;;;;;;;;;;5035151;28;20077;-76
2023/07/02 08:10:30;;;;;;;11.40;4.18;;;;;;;;;;5034471;28;20041;-77
2023/07/02 08:12:56;;;;;;;12.50;4.55;;;;;;;;;;5033939;28;20489;-78
2023/07/02 08:15:22;;;;;;;12.60;4.68;;;;;;;;;;5018551;28;20053;-78
2023/07/02 08:17:48;;;;;;;11.88;3.92;;;;;;;;;;5034099;28;20083;-77
2023/07/02 08:20:16;;;;;;;12.88;3.78;;;;;;;;;;5034388;28;20053;-77
2023/07/02 08:22:42;;;;;;;9.07;3.83;;;;;;;;;;5018208;28;20049;-78
2023/07/02 08:25:09;;;;;;;8.98;3.03;;;;;;;;;;5033605;28;20418;-77
2023/07/02 08:27:35;;;;;;;9.48;3.22;;;;;;;;;;5018197;28;20535;-77
2023/07/02 08:30:01;;;;;;;5.57;2.10;;;;;;;;;;5033590;28;20416;-78
2023/07/02 08:32:28;;;;;;;6.55;2.33;;;;;;;;;;5001606;28;20057;-78
2023/07/02 08:34:55;;;;;;;7.93;2.60;;;;;;;;;;5033529;28;20049;-79
2023/07/02 08:37:21;;;;;;;7.70;2.17;;;;;;;;;;5001185;28;20050;-79
2023/07/02 08:39:49;;;;;;;8.20;1.88;;;;;;;;;;5017218;28;20037;-79
2023/07/02 08:42:16;;;;;;;4.75;2.03;;;;;;;;;;5033842;28;20083;-78
2023/07/02 08:44:43;;;;;;;6.93;2.55;;;;;;;;;;5017815;28;20045;-79
2023/07/02 08:47:09;;;;;;;5.53;1.88;;;;;;;;;;5017131;28;20045;-77
2023/07/02 08:49:35;;;;;;;9.40;2.42;;;;;;;;;;5033171;28;20046;-78
2023/07/02 08:52:07;;;;;;;5.00;1.42;;;;;;;;;;5033702;28;20041;-77
2023/07/02 08:54:36;;;;;;;2.88;1.10;;;;;;;;;;5035325;28;20137;-77
2023/07/02 08:57:05;;;;;;;6.03;1.75;;;;;;;;;;5033513;28;20042;-78
2023/07/02 08:59:31;;;;;;;6.47;2.00;;;;;;;;;;5033493;28;20057;-81
2023/07/02 09:01:57;;;;;;;4.25;1.98;;;;;;;;;;5016973;28;20049;-78
2023/07/02 09:04:24;;;;;;;6.38;1.92;;;;;;;;;;5033412;28;20179;-78
2023/07/02 09:06:51;;;;;;;5.78;1.77;;;;;;;;;;5017120;28;20083;-78
2023/07/02 09:09:24;;;;;;;5.88;2.42;;;;;;;;;;5033680;28;20072;-78
2023/07/02 09:11:51;;;;;;;6.57;1.70;;;;;;;;;;5016540;28;20052;-78
2023/07/02 09:14:30;;;;;;;3.90;1.50;;;;;;;;;;5016888;28;20106;-78
2023/07/02 09:17:06;;;;;;;5.55;1.52;;;;;;;;;;5034016;28;20433;-77
2023/07/02 09:19:32;;;;;;;2.80;1.45;;;;;;;;;;5032510;28;20502;-77
2023/07/02 09:22:04;;;;;;;4.32;1.30;;;;;;;;;;5018346;28;20045;-78
2023/07/02 09:24:31;;;;;;;7.72;2.13;;;;;;;;;;5001332;28;20041;-78
2023/07/02 09:27:02;;;;;;;4.57;1.70;;;;;;;;;;5000422;28;20519;-78
2023/07/02 09:29:47;;;;;;;5.10;2.00;;;;;;;;;;5033265;28;20099;-78
2023/07/02 09:32:13;;;;;;;5.75;2.35;;;;;;;;;;5033067;28;20067;-77
2023/07/02 09:34:41;;;;;;;7.97;3.05;;;;;;;;;;5017427;28;20045;-76
2023/07/02 09:37:07;;;;;;;7.28;2.58;;;;;;;;;;5033270;28;20052;-76
2023/07/02 09:39:39;;;;;;;5.90;2.78;;;;;;;;;;5017295;28;20052;-77
2023/07/02 09:42:06;;;;;;;9.00;3.13;;;;;;;;;;5033762;28;20045;-77
2023/07/02 09:44:33;;;;;;;6.13;2.97;;;;;;;;;;5016347;28;20060;-78
2023/07/02 09:47:18;;;;;;;10.30;3.58;;;;;;;;;;5016001;28;20041;-77
2023/07/02 09:49:54;;;;;;;7.32;2.83;;;;;;;;;;5032951;28;20050;-77
2023/07/02 09:52:21;;;;;;;8.13;3.28;;;;;;;;;;5016660;28;20392;-77
2023/07/02 09:54:59;;;;;;;6.15;2.28;;;;;;;;;;5032150;28;20489;-77
2023/07/02 09:57:26;;;;;;;7.07;2.40;;;;;;;;;;5016655;28;20041;-77
2023/07/02 09:59:52;;;;;;;8.40;2.60;;;;;;;;;;5016527;28;20421;-78
2023/07/02 10:02:18;;;;;;;8.40;2.30;;;;;;;;;;5016217;28;20060;-77
2023/07/02 10:04:54;;;;;;;6.97;2.45;;;;;;;;;;5032578;28;20470;-78
2023/07/02 10:07:30;;;;;;;8.70;2.80;;;;;;;;;;5017017;28;20056;-77
2023/07/02 10:09:57;;;;;;;7.50;2.40;;;;;;;;;;5033326;28;20120;-77
2023/07/02 10:12:24;;;;;;;8.02;2.90;;;;;;;;;;5032569;28;20060;-77
2023/07/02 10:14:51;;;;;;;7.50;2.90;;;;;;;;;;5032501;28;20053;-77
2023/07/02 10:17:24;;;;;;;7.75;3.03;;;;;;;;;;5032206;28;20053;-77
2023/07/02 10:19:55;;;;;;;4.80;2.10;;;;;;;;;;5032755;28;20067;-77
2023/07/02 10:22:21;;;;;;;7.25;2.40;;;;;;;;;;5032705;28;20057;-76
2023/07/02 10:24:52;;;;;;;5.10;2.35;;;;;;;;;;5032133;28;20053;-77
2023/07/02 10:27:18;;;;;;;7.80;2.78;;;;;;;;;;5032486;28;20049;-77
2023/07/02 10:29:50;;;;;;;6.60;2.40;;;;;;;;;;5015886;28;20107;-77
2023/07/02 10:32:27;;;;;;;7.57;2.22;;;;;;;;;;5032086;28;20072;-77
2023/07/02 10:34:53;;;;;;;7.70;2.38;;;;;;;;;;5032554;28;20112;-77
2023/07/02 10:37:19;;;;;;;5.82;2.03;;;;;;;;;;5033151;28;20052;-77
2023/07/02 10:39:45;;;;;;;6.63;1.55;;;;;;;;;;5032275;28;20061;-77
2023/07/02 10:42:14;;;;;;;3.65;1.58;;;;;;;;;;5033585;28;20128;-77
2023/07/02 10:44:48;;;;;;;5.65;1.70;;;;;;;;;;5016072;28;20053;-77
2023/07/02 10:47:14;;;;;;;4.22;1.55;;;;;;;;;;5032245;28;20099;-77
2023/07/02 10:49:40;;;;;;;5.57;1.40;;;;;;;;;;5032102;28;20085;-77
2023/07/02 10:52:09;;;;;;;5.35;2.03;;;;;;;;;;5032222;28;20041;-77
2023/07/02 10:54:40;;;;;;;4.28;1.67;;;;;;;;;;5016288;28;20049;-77
2023/07/02 10:57:06;;;;;;;6.63;1.90;;;;;;;;;;5032030;28;20056;-77
2023/07/02 10:59:33;;;;;;;5.72;1.33;;;;;;;;;;5016522;28;20085;-77
2023/07/02 11:02:02;;;;;;;5.68;1.50;;;;;;;;;;5016109;28;20097;-77
2023/07/02 11:04:31;;;;;;;4.30;1.00;;;;;;;;;;5032170;28;20049;-77
2023/07/02 11:06:58;;;;;;;3.40;1.50;;;;;;;;;;5019271;28;20049;-77
2023/07/02 11:09:24;;;;;;;3.33;1.70;;;;;;;;;;5019465;28;20053;-77
2023/07/02 11:12:01;;;;;;;4.13;1.42;;;;;;;;;;5019447;28;20045;-78
2023/07/02 11:14:31;;;;;;;8.00;1.63;;;;;;;;;;5019518;28;20405;-80
2023/07/02 11:17:05;;;;;;;2.53;1.13;;;;;;;;;;5036087;28;20179;-78
2023/07/02 11:19:34;;;;;;;4.40;1.23;;;;;;;;;;5035556;28;20124;-78
2023/07/02 11:22:02;;;;;;;4.80;1.80;;;;;;;;;;5035773;28;20347;-78
2023/07/02 11:24:33;;;;;;;5.72;1.80;;;;;;;;;;5018812;28;20057;-78
2023/07/02 11:26:59;;;;;;;5.25;1.58;;;;;;;;;;5035640;28;20061;-77
2023/07/02 11:29:26;;;;;;;7.38;1.67;;;;;;;;;;5036064;28;20049;-78
2023/07/02 11:31:52;;;;;;;5.45;1.63;;;;;;;;;;5034996;28;20053;-77
2023/07/02 11:34:23;;;;;;;6.40;2.20;;;;;;;;;;5036024;28;20405;-77
2023/07/02 11:36:49;;;;;;;3.92;1.50;;;;;;;;;;5035682;28;20084;-79
2023/07/02 11:39:16;;;;;;;6.43;1.63;;;;;;;;;;5018661;28;20057;-78
2023/07/02 11:41:42;;;;;;;5.85;2.20;;;;;;;;;;5035237;28;20064;-79
2023/07/02 11:44:09;;;;;;;5.38;2.28;;;;;;;;;;5018500;28;20504;-78
2023/07/02 11:46:35;;;;;;;9.90;2.25;;;;;;;;;;5018532;28;20545;-78
2023/07/02 11:49:01;;;;;;;3.85;2.15;;;;;;;;;;5003007;28;20049;-78
2023/07/02 11:51:27;;;;;;;4.03;2.15;;;;;;;;;;5035382;28;20080;-78
2023/07/02 11:53:55;;;;;;;6.38;1.77;;;;;;;;;;5018484;28;20110;-78
2023/07/02 11:56:26;;;;;;;3.75;1.90;;;;;;;;;;5035136;28;20037;-78
2023/07/02 11:58:52;;;;;;;5.07;2.38;;;;;;;;;;5018342;28;20493;-77
2023/07/02 12:01:19;;;;;;;5.85;2.47;;;;;;;;;;5018490;28;20136;-78
2023/07/02 12:03:45;;;;;;;5.88;2.85;;;;;;;;;;5036166;28;20045;-78
2023/07/02 12:06:17;;;;;;;5.85;2.10;;;;;;;;;;5035418;28;20137;-79
2023/07/02 12:08:43;;;;;;;5.07;1.75;;;;;;;;;;5034581;28;20080;-77
2023/07/02 12:11:09;;;;;;;4.47;1.27;;;;;;;;;;5035365;28;20045;-79
2023/07/02 12:13:36;;;;;;;4.03;1.20;;;;;;;;;;5018303;28;20166;-77
2023/07/02 12:16:08;;;;;;;6.80;1.70;;;;;;;;;;5033550;28;20053;-78
2023/07/02 12:18:34;;;;;;;4.47;1.90;;;;;;;;;;5034397;28;20041;-78
2023/07/02 12:21:01;;;;;;;3.65;1.27;;;;;;;;;;5018714;28;20473;-79
2023/07/02 12:23:28;;;;;;;6.47;1.60;;;;;;;;;;5001634;28;20091;-78
2023/07/02 12:26:00;;;;;;;3.08;1.35;;;;;;;;;;5036117;28;20060;-77
2023/07/02 12:28:27;;;;;;;5.72;1.27;;;;;;;;;;5034745;28;20180;-78
2023/07/02 12:30:53;;;;;;;2.13;1.17;;;;;;;;;;5033989;28;20041;-78
2023/07/02 12:33:19;;;;;;;2.35;0.88;;;;;;;;;;5033766;28;20112;-78
2023/07/02 12:35:45;;;;;;;5.63;1.30;;;;;;;;;;5033750;28;20053;-79
2023/07/02 12:38:11;;;;;;;4.15;1.17;;;;;;;;;;5002102;28;20100;-79
2023/07/02 12:40:37;;;;;;;2.60;0.82;;;;;;;;;;5033898;28;20113;-79
2023/07/02 12:43:03;;;;;;;4.10;1.42;;;;;;;;;;5033880;28;20050;-78
2023/07/02 12:45:31;;;;;;;2.30;0.80;;;;;;;;;;5001106;28;20049;-78
2023/07/02 12:47:57;;;;;;;3.90;1.38;;;;;;;;;;5017291;28;20057;-78
2023/07/02 12:50:23;;;;;;;6.07;1.25;;;;;;;;;;5017222;28;20095;-78
2023/07/02 12:52:55;;;;;;;5.75;1.30;;;;;;;;;;5018914;28;20373;-77
2023/07/02 12:55:21;;;;;;;3.30;1.10;;;;;;;;;;5033664;28;20049;-80
2023/07/02 12:57:48;;;;;;;2.88;1.10;;;;;;;;;;5017402;28;20045;-81
2023/07/02 13:00:15;;;;;;;6.45;1.63;;;;;;;;;;5033641;28;20107;-78
2023/07/02 13:02:41;;;;;;;5.25;1.25;;;;;;;;;;5033531;28;20056;-82
2023/07/02 13:05:07;;;;;;;3.67;1.33;;;;;;;;;;5016809;28;20046;-81
2023/07/02 13:07:35;;;;;;;3.35;0.95;;;;;;;;;;5033284;28;20050;-79
2023/07/02 13:10:01;;;;;;;5.18;1.52;;;;;;;;;;5032341;28;20485;-78
2023/07/02 13:12:27;;;;;;;2.42;1.52;;;;;;;;;;5034362;28;20053;-79
2023/07/02 13:14:53;;;;;;;4.30;1.73;;;;;;;;;;5034135;28;20060;-81
2023/07/02 13:17:19;;;;;;;4.13;1.27;;;;;;;;;;5033318;28;20046;-81
2023/07/02 13:19:46;;;;;;;4.68;1.55;;;;;;;;;;5000768;28;20052;-77
2023/07/02 13:22:12;;;;;;;3.40;1.30;;;;;;;;;;5033044;28;20053;-79
2023/07/02 13:24:40;;;;;;;5.18;1.60;;;;;;;;;;5016696;28;20064;-82
2023/07/02 13:27:08;;;;;;;5.15;2.03;;;;;;;;;;5016388;28;20084;-79
2023/07/02 13:29:34;;;;;;;5.50;2.53;;;;;;;;;;5032959;28;20441;-78
2023/07/02 13:32:01;;;;;;;6.60;2.10;;;;;;;;;;5032705;28;20148;-77
2023/07/02 13:34:27;;;;;;;4.40;1.75;;;;;;;;;;5016637;28;20061;-78
2023/07/02 13:36:53;;;;;;;7.05;2.03;;;;;;;;;;5033169;28;20057;-77
2023/07/02 13:39:19;;;;;;;6.25;1.83;;;;;;;;;;5032937;28;20132;-78
2023/07/02 13:41:45;;;;;;;6.05;2.30;;;;;;;;;;5017329;28;20096;-78
2023/07/02 13:44:11;;;;;;;9.02;2.67;;;;;;;;;;5032878;28;20052;-78
2023/07/02 13:46:37;;;;;;;5.43;2.47;;;;;;;;;;5032801;28;20397;-77
2023/07/02 13:49:03;;;;;;;2.67;1.67;;;;;;;;;;5016647;28;20049;-78
2023/07/02 13:51:29;;;;;;;3.10;1.40;;;;;;;;;;5033315;28;20048;-78
2023/07/02 13:53:55;;;;;;;6.85;2.00;;;;;;;;;;5016420;28;20385;-77
2023/07/02 13:56:21;;;;;;;5.22;1.98;;;;;;;;;;5000894;28;20136;-78
2023/07/02 13:58:56;;;;;;;6.25;2.42;;;;;;;;;;5032510;28;20140;-78
2023/07/02 14:01:23;;;;;;;4.25;2.13;;;;;;;;;;5016180;28;20132;-79
2023/07/02 14:03:49;;;;;;;8.57;2.60;;;;;;;;;;5033427;28;20053;-77
2023/07/02 14:06:15;;;;;;;7.40;2.28;;;;;;;;;;5033335;28;20049;-78
2023/07/02 14:08:42;;;;;;;4.20;1.92;;;;;;;;;;5016289;28;20053;-78
2023/07/02 14:11:08;;;;;;;5.25;2.08;;;;;;;;;;4999693;28;20445;-78
2023/07/02 14:13:36;;;;;;;4.70;1.85;;;;;;;;;;5016937;28;20475;-78
2023/07/02 14:16:02;;;;;;;6.55;2.15;;;;;;;;;;5032521;28;20045;-78
2023/07/02 14:18:28;;;;;;;5.97;2.20;;;;;;;;;;5032480;28;20048;-77
2023/07/02 14:20:55;;;;;;;6.30;2.13;;;;;;;;;;5032494;28;20042;-78
2023/07/02 14:23:21;;;;;;;6.43;2.67;;;;;;;;;;5016276;28;20103;-78
2023/07/02 14:25:47;;;;;;;8.70;2.13;;;;;;;;;;5032199;28;20128;-78
2023/07/02 14:28:13;;;;;;;3.42;1.98;;;;;;;;;;5032411;28;20045;-78
2023/07/02 14:30:42;;;;;;;4.47;1.85;;;;;;;;;;5032267;28;20037;-78
2023/07/02 14:33:08;;;;;;;5.38;2.65;;;;;;;;;;5032202;28;20417;-79
2023/07/02 14:35:36;;;;;;;6.68;2.88;;;;;;;;;;5032039;28;20128;-78
2023/07/02 14:38:02;;;;;;;4.75;2.05;;;;;;;;;;5016198;28;20385;-77